createdAt,value
2023-05-24T00:00:00.193Z,9.1
2023-05-24T00:04:00.419Z,9.1
2023-05-24T00:08:00.249Z,9.1
2023-05-24T00:12:00.211Z,9.1
2023-05-24T00:16:00.201Z,9.0
2023-05-24T00:20:00.276Z,9.0
2023-05-24T00:24:00.173Z,9.0
2023-05-24T00:28:00.227Z,9.1
2023-05-24T00:32:00.347Z,9.1
2023-05-24T00:36:00.188Z,9.1
2023-05-24T00:40:00.268Z,9.0
2023-05-24T00:44:00.227Z,8.9
2023-05-24T00:48:01.362Z,8.9
2023-05-24T00:52:00.209Z,8.9
2023-05-24T00:56:00.207Z,8.8
2023-05-24T01:00:00.204Z,8.8
2023-05-24T01:04:00.219Z,8.7
2023-05-24T01:08:00.191Z,8.7
2023-05-24T01:12:00.214Z,8.7
2023-05-24T01:16:00.297Z,8.5
2023-05-24T01:20:00.390Z,8.2
2023-05-24T01:24:00.226Z,8.1
2023-05-24T01:28:00.202Z,7.9
2023-05-24T01:32:00.224Z,7.7
2023-05-24T01:36:00.187Z,7.5
2023-05-24T01:40:00.257Z,7.5
2023-05-24T01:44:00.189Z,7.6
2023-05-24T01:48:00.230Z,7.6
2023-05-24T01:52:00.324Z,7.7
2023-05-24T01:56:00.208Z,7.9
2023-05-24T02:00:00.231Z,8.0
2023-05-24T02:04:00.220Z,8.1
2023-05-24T02:08:00.185Z,8.2
2023-05-24T02:12:00.197Z,8.3
2023-05-24T02:16:00.217Z,8.4
2023-05-24T02:20:00.364Z,8.5
2023-05-24T02:24:00.221Z,8.4
2023-05-24T02:28:00.199Z,8.4
2023-05-24T02:32:00.196Z,8.5
2023-05-24T02:36:00.221Z,8.5
2023-05-24T02:40:00.199Z,8.6
2023-05-24T02:44:00.216Z,8.6
2023-05-24T02:48:00.353Z,8.7
2023-05-24T02:52:00.225Z,8.7
2023-05-24T02:56:00.177Z,8.8
2023-05-24T03:00:00.224Z,8.8
2023-05-24T03:04:00.319Z,8.9
2023-05-24T03:08:00.193Z,8.9
2023-05-24T03:12:00.235Z,9.0
2023-05-24T03:16:00.257Z,9.0
2023-05-24T03:20:00.282Z,9.1
2023-05-24T03:24:00.205Z,9.1
2023-05-24T03:28:00.223Z,9.2
2023-05-24T03:32:00.389Z,9.2
2023-05-24T03:36:00.200Z,9.3
2023-05-24T03:40:00.222Z,9.3
2023-05-24T03:44:00.210Z,9.4
2023-05-24T03:48:00.255Z,9.4
2023-05-24T03:52:00.211Z,9.5
2023-05-24T03:56:00.179Z,9.5
2023-05-24T04:00:00.208Z,9.6
2023-05-24T04:04:00.306Z,9.6
2023-05-24T04:08:00.190Z,9.6
2023-05-24T04:12:00.194Z,9.6
2023-05-24T04:16:00.188Z,9.6
2023-05-24T04:20:00.266Z,9.6
2023-05-24T04:24:00.192Z,9.6
2023-05-24T04:28:00.215Z,9.6
2023-05-24T04:32:00.202Z,9.7
2023-05-24T04:36:00.176Z,9.8
2023-05-24T04:40:00.253Z,9.9
2023-05-24T04:44:00.209Z,9.9
2023-05-24T04:48:00.271Z,9.9
2023-05-24T04:52:00.222Z,10.0
2023-05-24T04:56:00.234Z,10.2
2023-05-24T05:00:00.197Z,10.2
2023-05-24T05:04:00.343Z,10.3
2023-05-24T05:08:00.195Z,10.3
2023-05-24T05:12:00.236Z,10.3
2023-05-24T05:16:00.265Z,10.3
2023-05-24T05:20:00.342Z,10.3
2023-05-24T05:24:00.197Z,10.5
2023-05-24T05:28:00.191Z,10.5
2023-05-24T05:32:00.317Z,10.7
2023-05-24T05:36:00.206Z,10.7
2023-05-24T05:40:00.224Z,10.8
2023-05-24T05:44:00.218Z,11.0
2023-05-24T05:48:00.269Z,10.9
2023-05-24T05:52:00.201Z,10.7
2023-05-24T05:56:00.226Z,10.9
2023-05-24T06:00:00.256Z,11.0
2023-05-24T06:04:00.364Z,11.1
2023-05-24T06:08:00.193Z,11.4
2023-05-24T06:12:00.205Z,11.1
2023-05-24T06:16:00.240Z,11.3
2023-05-24T06:20:00.318Z,11.2
2023-05-24T06:24:00.191Z,11.4
2023-05-24T06:28:00.202Z,11.5
2023-05-24T06:32:00.286Z,11.7
2023-05-24T06:36:00.219Z,11.5
2023-05-24T06:40:00.244Z,11.2
2023-05-24T06:44:00.214Z,11.2
2023-05-24T06:48:00.406Z,11.2
2023-05-24T06:52:00.205Z,11.6
2023-05-24T06:56:00.202Z,11.6
2023-05-24T07:00:00.238Z,11.8
2023-05-24T07:04:00.225Z,12.2
2023-05-24T07:08:00.205Z,12.1
2023-05-24T07:12:00.213Z,12.1
2023-05-24T07:16:00.252Z,12.5
2023-05-24T07:20:00.287Z,13.1
2023-05-24T07:24:00.204Z,13.0
2023-05-24T07:28:00.174Z,12.7
2023-05-24T07:32:00.211Z,12.7
2023-05-24T07:36:00.200Z,13.1
2023-05-24T07:40:00.207Z,12.8
2023-05-24T07:44:00.220Z,12.9
2023-05-24T07:48:00.299Z,12.9
2023-05-24T07:52:00.202Z,12.2
2023-05-24T07:56:00.214Z,12.7
2023-05-24T08:00:00.269Z,12.6
2023-05-24T08:04:00.353Z,12.9
2023-05-24T08:08:00.212Z,12.7
2023-05-24T08:12:00.204Z,13.1
2023-05-24T08:16:00.216Z,13.3
2023-05-24T08:20:00.456Z,13.3
2023-05-24T08:24:00.202Z,13.5
2023-05-24T08:28:00.241Z,12.9
2023-05-24T08:32:00.245Z,12.8
2023-05-24T08:36:00.215Z,12.7
2023-05-24T08:40:00.243Z,13.0
2023-05-24T08:44:00.200Z,13.2
2023-05-24T08:48:00.317Z,13.2
2023-05-24T08:52:00.199Z,12.6
2023-05-24T08:56:00.219Z,12.8
2023-05-24T09:00:00.212Z,12.7
2023-05-24T09:04:00.288Z,13.1
2023-05-24T09:08:00.211Z,13.2
2023-05-24T09:12:00.209Z,13.0
2023-05-24T09:16:00.307Z,12.9
2023-05-24T09:20:00.422Z,13.3
2023-05-24T09:24:00.215Z,13.3
2023-05-24T09:28:00.206Z,13.5
2023-05-24T09:32:00.294Z,13.5
2023-05-24T09:36:00.213Z,13.9
2023-05-24T09:40:00.334Z,13.6
2023-05-24T09:44:00.205Z,13.9
2023-05-24T09:48:00.246Z,13.9
2023-05-24T09:52:00.229Z,13.4
2023-05-24T09:56:00.185Z,13.6
2023-05-24T10:00:00.221Z,13.5
2023-05-24T10:04:00.346Z,13.4
2023-05-24T10:08:00.207Z,13.5
2023-05-24T10:12:00.194Z,13.5
2023-05-24T10:16:00.220Z,13.5
2023-05-24T10:20:00.368Z,13.8
2023-05-24T10:24:00.205Z,13.5
2023-05-24T10:28:00.246Z,13.7
2023-05-24T10:32:00.200Z,13.9
2023-05-24T10:36:00.196Z,14.0
2023-05-24T10:40:00.216Z,13.8
2023-05-24T10:48:00.214Z,13.7
2023-05-24T10:52:00.185Z,13.8
2023-05-24T10:56:00.335Z,13.8
2023-05-24T11:00:00.247Z,14.1
2023-05-24T11:04:00.198Z,14.1
2023-05-24T11:08:00.227Z,14.5
2023-05-24T11:12:00.201Z,14.6
2023-05-24T11:16:00.313Z,14.6
2023-05-24T11:20:00.265Z,15.0
2023-05-24T11:24:00.268Z,15.3
2023-05-24T11:28:00.241Z,15.2
2023-05-24T11:32:00.281Z,15.8
2023-05-24T11:36:00.221Z,15.8
2023-05-24T11:40:00.204Z,15.2
2023-05-24T11:44:00.199Z,15.0
2023-05-24T11:48:00.225Z,15.1
2023-05-24T11:52:00.202Z,14.4
2023-05-24T11:56:00.209Z,14.7
2023-05-24T12:00:00.249Z,14.7
2023-05-24T12:04:00.354Z,15.8
2023-05-24T12:08:00.213Z,16.8
2023-05-24T12:12:00.235Z,16.7
2023-05-24T12:16:00.220Z,18.4
2023-05-24T12:20:00.305Z,18.9
2023-05-24T12:24:00.218Z,18.4
2023-05-24T12:28:00.219Z,18.9
2023-05-24T12:32:00.202Z,18.2
2023-05-24T12:36:00.217Z,19.3
2023-05-24T12:40:00.222Z,19.9
2023-05-24T12:44:00.215Z,19.1
2023-05-24T12:48:00.252Z,18.6
2023-05-24T12:52:00.218Z,19.5
2023-05-24T12:56:00.199Z,17.9
2023-05-24T13:00:00.188Z,18.7
2023-05-24T13:04:00.236Z,19.3
2023-05-24T13:08:00.203Z,18.2
2023-05-24T13:12:00.199Z,18.5
2023-05-24T13:16:00.194Z,19.3
2023-05-24T13:20:00.369Z,19.2
2023-05-24T13:24:00.199Z,18.5
2023-05-24T13:28:00.214Z,18.9
2023-05-24T13:32:00.182Z,19.1
2023-05-24T13:36:00.214Z,18.9
2023-05-24T13:40:00.222Z,19.5
2023-05-24T13:44:00.209Z,19.4
2023-05-24T13:48:00.381Z,19.8
2023-05-24T13:52:00.206Z,19.9
2023-05-24T13:56:00.201Z,20.7
2023-05-24T14:00:00.272Z,20.0
2023-05-24T14:04:00.211Z,19.0
2023-05-24T14:08:00.293Z,19.8
2023-05-24T14:12:00.192Z,18.0
2023-05-24T14:16:00.287Z,18.1
2023-05-24T14:20:00.329Z,18.7
2023-05-24T14:24:00.199Z,18.5
2023-05-24T14:28:00.211Z,19.5
2023-05-24T14:32:00.324Z,18.8
2023-05-24T14:36:00.207Z,20.2
2023-05-24T14:40:00.468Z,20.3
2023-05-24T14:44:00.187Z,20.3
2023-05-24T14:48:00.272Z,20.9
2023-05-24T14:52:00.205Z,19.9
2023-05-24T14:56:00.192Z,19.9
2023-05-24T15:00:00.252Z,19.7
2023-05-24T15:04:00.193Z,20.2
2023-05-24T15:08:00.230Z,19.5
2023-05-24T15:12:00.200Z,19.7
2023-05-24T15:16:00.175Z,19.1
2023-05-24T15:20:00.303Z,19.3
2023-05-24T15:24:00.200Z,19.3
2023-05-24T15:28:00.201Z,19.3
2023-05-24T15:32:00.194Z,19.0
2023-05-24T15:36:00.280Z,19.3
2023-05-24T15:40:00.223Z,19.7
2023-05-24T15:44:00.237Z,18.9
2023-05-24T15:48:00.249Z,18.7
2023-05-24T15:52:04.294Z,18.8
2023-05-24T15:56:00.187Z,18.6
2023-05-24T16:00:00.221Z,18.4
2023-05-24T16:04:00.282Z,18.1
2023-05-24T16:08:00.219Z,18.5
2023-05-24T16:12:01.011Z,17.7
2023-05-24T16:16:00.201Z,18.2
2023-05-24T16:20:00.259Z,18.2
2023-05-24T16:24:02.053Z,18.3
2023-05-24T16:28:00.215Z,17.9
2023-05-24T16:32:00.265Z,17.9
2023-05-24T16:36:02.961Z,17.5
2023-05-24T16:40:00.218Z,18.0
2023-05-24T16:44:00.204Z,17.6
2023-05-24T16:48:00.322Z,17.2
2023-05-24T16:52:00.196Z,17.6
2023-05-24T16:56:00.206Z,17.5
2023-05-24T17:00:00.220Z,17.9
2023-05-24T17:04:00.553Z,17.8
2023-05-24T17:08:00.220Z,17.8
2023-05-24T17:12:00.221Z,17.2
2023-05-24T17:16:00.614Z,17.1
2023-05-24T17:20:00.310Z,16.7
2023-05-24T17:24:00.266Z,16.0
2023-05-24T17:28:00.193Z,15.4
2023-05-24T17:32:00.309Z,15.1
2023-05-24T17:36:00.243Z,14.9
2023-05-24T17:40:00.212Z,14.9
2023-05-24T17:44:00.194Z,14.6
2023-05-24T17:48:00.266Z,14.4
2023-05-24T17:52:01.040Z,14.3
2023-05-24T17:56:00.212Z,14.2
2023-05-24T18:00:00.214Z,14.2
2023-05-24T18:04:00.190Z,13.9
2023-05-24T18:08:00.207Z,13.7
2023-05-24T18:12:00.199Z,13.3
2023-05-24T18:16:00.200Z,13.0
2023-05-24T18:20:00.404Z,13.0
2023-05-24T18:24:00.197Z,12.8
2023-05-24T18:28:00.192Z,12.6
2023-05-24T18:32:00.320Z,12.2
2023-05-24T18:36:00.197Z,11.9
2023-05-24T18:40:00.244Z,11.7
2023-05-24T18:44:00.203Z,11.4
2023-05-24T18:48:00.272Z,11.3
2023-05-24T18:52:00.208Z,11.1
2023-05-24T18:56:00.199Z,11.0
2023-05-24T19:00:00.199Z,11.0
2023-05-24T19:04:00.210Z,10.7
2023-05-24T19:08:00.199Z,10.6
2023-05-24T19:12:00.195Z,10.2
2023-05-24T19:16:00.201Z,10.2
2023-05-24T19:20:00.326Z,10.0
2023-05-24T19:24:00.217Z,9.9
2023-05-24T19:28:00.927Z,9.6
2023-05-24T19:32:00.236Z,9.7
2023-05-24T19:36:00.239Z,9.5
2023-05-24T19:40:00.193Z,9.3
2023-05-24T19:44:00.220Z,9.1
2023-05-24T19:48:00.232Z,9.0
2023-05-24T19:52:00.204Z,8.9
2023-05-24T19:56:00.210Z,9.1
2023-05-24T20:00:00.218Z,8.9
2023-05-24T20:04:00.287Z,8.8
2023-05-24T20:08:00.208Z,8.7
2023-05-24T20:12:00.212Z,8.5
2023-05-24T20:16:00.265Z,8.4
2023-05-24T20:20:00.288Z,8.4
2023-05-24T20:24:00.211Z,8.3
2023-05-24T20:28:00.207Z,8.4
2023-05-24T20:32:00.237Z,8.5
2023-05-24T20:36:00.191Z,8.3
2023-05-24T20:40:00.226Z,8.2
2023-05-24T20:44:00.190Z,8.2
2023-05-24T20:48:00.306Z,8.2
2023-05-24T20:52:00.189Z,8.1
2023-05-24T20:56:00.202Z,8.0
2023-05-24T21:00:00.197Z,8.0
2023-05-24T21:04:00.234Z,8.0
2023-05-24T21:08:00.204Z,8.0
2023-05-24T21:12:00.202Z,7.9
2023-05-24T21:16:00.223Z,7.9
2023-05-24T21:20:00.282Z,7.8
2023-05-24T21:24:00.205Z,7.9
2023-05-24T21:28:00.232Z,7.7
2023-05-24T21:32:00.213Z,7.7
2023-05-24T21:36:00.224Z,7.7
2023-05-24T21:40:00.206Z,7.6
2023-05-24T21:44:00.190Z,7.5
2023-05-24T21:48:00.256Z,7.4
2023-05-24T21:52:00.196Z,7.4
2023-05-24T21:56:00.194Z,7.3
2023-05-24T22:00:00.201Z,7.3
2023-05-24T22:04:00.243Z,7.2
2023-05-24T22:08:00.256Z,7.2
2023-05-24T22:12:00.206Z,7.3
2023-05-24T22:16:00.249Z,7.2
2023-05-24T22:20:00.258Z,7.1
2023-05-24T22:24:00.182Z,7.1
2023-05-24T22:28:00.207Z,7.1
2023-05-24T22:32:00.307Z,7.1
2023-05-24T22:36:00.215Z,7.1
2023-05-24T22:40:00.215Z,7.1
2023-05-24T22:44:00.232Z,7.1
2023-05-24T22:48:00.257Z,7.1
2023-05-24T22:52:00.216Z,7.0
2023-05-24T22:56:00.220Z,7.0
2023-05-24T23:00:00.213Z,7.0
2023-05-24T23:04:15.774Z,6.9
2023-05-24T23:08:00.216Z,6.8
2023-05-24T23:12:00.210Z,6.9
2023-05-24T23:16:00.182Z,6.9
2023-05-24T23:20:00.301Z,6.8
2023-05-24T23:24:00.220Z,6.8
2023-05-24T23:28:00.198Z,6.7
2023-05-24T23:32:00.223Z,6.8
2023-05-24T23:36:00.186Z,6.7
2023-05-24T23:40:00.242Z,6.6
2023-05-24T23:44:00.196Z,6.6
2023-05-24T23:48:00.246Z,6.7
2023-05-24T23:52:00.196Z,6.6
2023-05-24T23:56:00.200Z,6.4
